createdAt,value
2023-05-21T00:01:25.990Z,17.37
2023-05-21T00:03:53.391Z,16.83
2023-05-21T00:06:20.996Z,18.73
2023-05-21T00:08:48.394Z,18.10
2023-05-21T00:11:15.615Z,18.73
2023-05-21T00:13:42.797Z,17.13
2023-05-21T00:16:11.267Z,17.83
2023-05-21T00:18:40.416Z,19.83
2023-05-21T00:21:07.628Z,18.73
2023-05-21T00:23:37.826Z,16.30
2023-05-21T00:26:04.935Z,20.00
2023-05-21T00:28:32.009Z,19.55
2023-05-21T00:30:59.187Z,17.85
2023-05-21T00:33:26.602Z,19.20
2023-05-21T00:35:53.843Z,18.80
2023-05-21T00:38:22.137Z,19.00
2023-05-21T00:40:50.047Z,17.40
2023-05-21T00:43:17.145Z,16.63
2023-05-21T00:45:44.591Z,17.30
2023-05-21T00:48:12.483Z,17.95
2023-05-21T00:50:40.647Z,19.07
2023-05-21T00:53:12.766Z,18.20
2023-05-21T00:55:40.303Z,17.38
2023-05-21T00:58:08.022Z,19.38
2023-05-21T01:00:35.942Z,18.45
2023-05-21T01:03:04.448Z,18.97
2023-05-21T01:05:32.426Z,18.88
2023-05-21T01:07:59.613Z,16.02
2023-05-21T01:10:27.254Z,17.92
2023-05-21T01:12:55.579Z,19.60
2023-05-21T01:15:23.138Z,18.53
2023-05-21T01:17:51.602Z,20.58
2023-05-21T01:20:20.237Z,20.25
2023-05-21T01:22:55.160Z,19.45
2023-05-21T01:25:23.831Z,22.33
2023-05-21T01:27:51.919Z,20.80
2023-05-21T01:30:21.244Z,19.52
2023-05-21T01:32:57.678Z,19.83
2023-05-21T01:35:36.620Z,19.50
2023-05-21T01:38:43.018Z,19.67
2023-05-21T01:41:14.350Z,17.97
2023-05-21T01:43:44.071Z,20.10
2023-05-21T01:46:18.001Z,18.13
2023-05-21T01:48:45.510Z,21.95
2023-05-21T01:51:13.017Z,20.60
2023-05-21T01:53:40.957Z,20.87
2023-05-21T01:56:08.764Z,21.33
2023-05-21T01:58:36.088Z,21.85
2023-05-21T02:01:04.541Z,18.23
2023-05-21T02:03:31.899Z,21.27
2023-05-21T02:05:59.420Z,21.33
2023-05-21T02:08:27.974Z,19.23
2023-05-21T02:10:55.615Z,17.95
2023-05-21T02:13:26.794Z,20.02
2023-05-21T02:15:55.008Z,19.42
2023-05-21T02:18:22.683Z,23.50
2023-05-21T02:20:50.063Z,18.65
2023-05-21T02:23:17.380Z,21.83
2023-05-21T02:25:44.592Z,19.42
2023-05-21T02:28:12.792Z,22.05
2023-05-21T02:30:39.972Z,21.13
2023-05-21T02:33:09.334Z,21.27
2023-05-21T02:35:36.966Z,20.08
2023-05-21T02:38:04.403Z,19.23
2023-05-21T02:40:33.214Z,21.70
2023-05-21T02:43:00.583Z,22.53
2023-05-21T02:45:28.508Z,20.83
2023-05-21T02:47:55.800Z,18.55
2023-05-21T02:50:23.408Z,19.27
2023-05-21T02:52:50.680Z,19.45
2023-05-21T02:55:17.905Z,20.90
2023-05-21T02:57:45.161Z,23.20
2023-05-21T03:00:13.422Z,20.38
2023-05-21T03:02:40.902Z,20.02
2023-05-21T03:05:08.185Z,21.67
2023-05-21T03:07:35.602Z,19.37
2023-05-21T03:10:02.722Z,20.42
2023-05-21T03:12:29.861Z,19.75
2023-05-21T03:14:56.981Z,21.10
2023-05-21T03:17:24.233Z,20.40
2023-05-21T03:19:52.088Z,20.40
2023-05-21T03:22:20.016Z,21.02
2023-05-21T03:24:47.198Z,21.45
2023-05-21T03:27:14.436Z,19.98
2023-05-21T03:29:43.151Z,19.98
2023-05-21T03:32:10.672Z,23.07
2023-05-21T03:34:37.922Z,20.30
2023-05-21T03:37:05.608Z,20.23
2023-05-21T03:39:32.699Z,20.98
2023-05-21T03:42:00.286Z,21.23
2023-05-21T03:44:27.898Z,22.43
2023-05-21T03:46:54.985Z,20.73
2023-05-21T03:49:22.170Z,21.77
2023-05-21T03:51:49.274Z,19.92
2023-05-21T03:54:16.447Z,23.63
2023-05-21T03:56:43.883Z,19.57
2023-05-21T03:59:10.975Z,23.10
2023-05-21T04:01:39.075Z,19.80
2023-05-21T04:04:06.482Z,19.88
2023-05-21T04:06:33.743Z,21.02
2023-05-21T04:09:01.164Z,23.87
2023-05-21T04:11:28.306Z,19.90
2023-05-21T04:13:55.375Z,19.88
2023-05-21T04:16:22.656Z,22.15
2023-05-21T04:18:49.866Z,21.45
2023-05-21T04:21:16.996Z,19.00
2023-05-21T04:23:44.094Z,21.17
2023-05-21T04:26:12.712Z,21.20
2023-05-21T04:28:41.988Z,21.35
2023-05-21T04:31:09.416Z,21.88
2023-05-21T04:33:36.532Z,21.53
2023-05-21T04:36:03.889Z,20.05
2023-05-21T04:38:31.118Z,25.10
2023-05-21T04:40:58.763Z,20.52
2023-05-21T04:43:26.543Z,21.70
2023-05-21T04:45:55.069Z,21.13
2023-05-21T04:48:26.905Z,21.50
2023-05-21T04:50:55.899Z,22.80
2023-05-21T04:53:23.840Z,22.83
2023-05-21T04:55:50.946Z,22.40
2023-05-21T04:58:19.120Z,21.27
2023-05-21T05:00:46.995Z,21.83
2023-05-21T05:03:14.640Z,20.83
2023-05-21T05:05:42.280Z,23.63
2023-05-21T05:08:09.394Z,19.75
2023-05-21T05:10:36.524Z,21.13
2023-05-21T05:13:03.773Z,20.75
2023-05-21T05:15:31.125Z,22.30
2023-05-21T05:17:58.351Z,20.05
2023-05-21T05:20:25.498Z,18.92
2023-05-21T05:22:52.717Z,21.33
2023-05-21T05:25:20.096Z,20.50
2023-05-21T05:27:47.241Z,21.10
2023-05-21T05:30:14.356Z,20.88
2023-05-21T05:32:41.501Z,21.50
2023-05-21T05:35:09.204Z,19.13
2023-05-21T05:37:36.300Z,20.95
2023-05-21T05:40:04.570Z,20.80
2023-05-21T05:42:31.703Z,18.63
2023-05-21T05:44:58.845Z,21.58
2023-05-21T05:47:26.720Z,19.73
2023-05-21T05:49:53.820Z,20.92
2023-05-21T05:52:21.211Z,20.42
2023-05-21T05:54:48.488Z,22.25
2023-05-21T05:57:15.597Z,18.65
2023-05-21T05:59:42.720Z,18.63
2023-05-21T06:02:10.070Z,18.92
2023-05-21T06:04:37.389Z,19.48
2023-05-21T06:07:04.629Z,18.90
2023-05-21T06:09:31.762Z,18.15
2023-05-21T06:11:58.897Z,18.77
2023-05-21T06:14:25.995Z,18.80
2023-05-21T06:16:53.093Z,18.33
2023-05-21T06:19:20.309Z,20.38
2023-05-21T06:21:47.634Z,17.83
2023-05-21T06:24:15.431Z,18.03
2023-05-21T06:26:42.635Z,16.70
2023-05-21T06:29:09.709Z,20.63
2023-05-21T06:31:36.794Z,18.88
2023-05-21T06:34:04.149Z,17.13
2023-05-21T06:36:32.304Z,18.30
2023-05-21T06:38:59.501Z,17.60
2023-05-21T06:41:26.753Z,18.02
2023-05-21T06:43:53.974Z,15.50
2023-05-21T06:46:21.500Z,13.68
2023-05-21T06:48:48.667Z,15.60
2023-05-21T06:51:15.811Z,13.77
2023-05-21T06:53:43.126Z,14.45
2023-05-21T06:56:10.231Z,14.38
2023-05-21T06:58:37.307Z,14.65
2023-05-21T07:01:04.401Z,12.70
2023-05-21T07:03:31.725Z,15.60
2023-05-21T07:05:58.917Z,14.98
2023-05-21T07:08:25.991Z,13.35
2023-05-21T07:10:53.127Z,14.25
2023-05-21T07:13:20.267Z,16.33
2023-05-21T07:15:47.442Z,18.25
2023-05-21T07:18:14.613Z,13.80
2023-05-21T07:20:41.760Z,13.45
2023-05-21T07:23:08.849Z,16.45
2023-05-21T07:25:36.201Z,12.37
2023-05-21T07:28:05.914Z,14.15
2023-05-21T07:30:33.676Z,12.63
2023-05-21T07:33:00.928Z,12.80
2023-05-21T07:35:29.007Z,12.93
2023-05-21T07:37:56.151Z,11.87
2023-05-21T07:40:23.276Z,12.85
2023-05-21T07:42:50.598Z,12.20
2023-05-21T07:45:17.700Z,12.98
2023-05-21T07:47:45.727Z,11.45
2023-05-21T07:50:14.074Z,13.00
2023-05-21T07:52:41.286Z,12.32
2023-05-21T07:55:09.205Z,11.23
2023-05-21T07:57:36.736Z,11.90
2023-05-21T08:00:05.664Z,10.13
2023-05-21T08:02:34.348Z,12.40
2023-05-21T08:05:01.859Z,13.02
2023-05-21T08:07:29.093Z,11.77
2023-05-21T08:09:56.510Z,12.07
2023-05-21T08:12:23.592Z,14.15
2023-05-21T08:14:50.771Z,10.43
2023-05-21T08:17:18.062Z,14.57
2023-05-21T08:19:45.151Z,11.45
2023-05-21T08:22:12.315Z,12.43
2023-05-21T08:24:39.448Z,12.05
2023-05-21T08:27:07.698Z,12.90
2023-05-21T08:29:35.191Z,12.10
2023-05-21T08:32:02.387Z,12.35
2023-05-21T08:34:29.641Z,12.18
2023-05-21T08:36:56.776Z,10.60
2023-05-21T08:39:23.860Z,10.93
2023-05-21T08:41:53.156Z,13.70
2023-05-21T08:44:21.660Z,14.20
2023-05-21T08:46:49.929Z,12.93
2023-05-21T08:49:17.709Z,12.23
2023-05-21T08:51:45.756Z,14.60
2023-05-21T08:54:13.974Z,15.10
2023-05-21T08:56:45.789Z,12.48
2023-05-21T08:59:13.701Z,13.18
2023-05-21T09:01:42.303Z,13.35
2023-05-21T09:04:20.219Z,17.70
2023-05-21T09:06:48.602Z,11.98
2023-05-21T09:09:29.449Z,13.05
2023-05-21T09:11:56.568Z,11.27
2023-05-21T09:14:23.856Z,11.68
2023-05-21T09:16:51.036Z,12.73
2023-05-21T09:19:21.751Z,12.27
2023-05-21T09:21:51.555Z,12.60
2023-05-21T09:24:22.609Z,12.52
2023-05-21T09:26:49.799Z,12.05
2023-05-21T09:29:16.920Z,11.20
2023-05-21T09:31:45.098Z,11.95
2023-05-21T09:34:14.027Z,16.27
2023-05-21T09:36:41.158Z,9.73
2023-05-21T09:39:08.814Z,9.98
2023-05-21T09:41:36.852Z,11.80
2023-05-21T09:44:04.575Z,9.27
2023-05-21T09:46:41.688Z,10.77
2023-05-21T09:49:26.107Z,12.38
2023-05-21T09:51:59.084Z,11.85
2023-05-21T09:54:31.202Z,13.23
2023-05-21T09:57:01.410Z,10.90
2023-05-21T09:59:40.993Z,11.93
2023-05-21T10:02:21.796Z,11.75
2023-05-21T10:04:50.791Z,11.15
2023-05-21T10:07:19.218Z,12.20
2023-05-21T10:09:48.674Z,11.00
2023-05-21T10:12:18.112Z,11.18
2023-05-21T10:14:46.959Z,11.50
2023-05-21T10:17:14.667Z,11.85
2023-05-21T10:19:42.270Z,13.23
2023-05-21T10:22:09.955Z,10.55
2023-05-21T10:24:37.667Z,12.95
2023-05-21T10:27:05.152Z,10.27
2023-05-21T10:29:32.329Z,11.02
2023-05-21T10:32:01.058Z,9.53
2023-05-21T10:34:28.751Z,12.10
2023-05-21T10:36:57.252Z,10.13
2023-05-21T10:39:25.639Z,11.30
2023-05-21T10:42:19.024Z,10.52
2023-05-21T10:45:04.300Z,9.47
2023-05-21T10:47:54.586Z,9.90
2023-05-21T10:50:50.799Z,8.57
2023-05-21T10:53:20.584Z,10.20
2023-05-21T10:56:09.068Z,9.27
2023-05-21T10:59:02.845Z,8.33
2023-05-21T11:01:33.989Z,9.57
2023-05-21T11:04:04.132Z,9.05
2023-05-21T11:06:31.349Z,9.18
2023-05-21T11:09:03.077Z,7.93
2023-05-21T11:11:46.214Z,8.63
2023-05-21T11:14:31.854Z,10.18
2023-05-21T11:16:59.899Z,8.68
2023-05-21T11:19:37.961Z,10.55
2023-05-21T11:22:22.827Z,9.48
2023-05-21T11:24:51.338Z,12.67
2023-05-21T11:27:40.989Z,8.40
2023-05-21T11:30:09.157Z,11.18
2023-05-21T11:32:40.614Z,9.90
2023-05-21T11:35:08.057Z,8.57
2023-05-21T11:37:36.107Z,9.73
2023-05-21T11:40:25.796Z,9.77
2023-05-21T11:42:56.707Z,9.02
2023-05-21T11:45:28.919Z,8.82
2023-05-21T11:47:56.203Z,8.80
2023-05-21T11:50:23.399Z,9.03
2023-05-21T11:52:51.007Z,10.95
2023-05-21T11:55:25.866Z,10.35
2023-05-21T11:57:53.834Z,7.90
2023-05-21T12:00:21.678Z,9.27
2023-05-21T12:02:53.026Z,10.07
2023-05-21T12:05:20.908Z,8.85
2023-05-21T12:07:49.960Z,8.70
2023-05-21T12:10:21.642Z,9.77
2023-05-21T12:12:55.600Z,9.98
2023-05-21T12:15:25.239Z,8.47
2023-05-21T12:17:55.123Z,8.85
2023-05-21T12:20:22.548Z,7.78
2023-05-21T12:22:50.236Z,8.82
2023-05-21T12:25:21.135Z,7.60
2023-05-21T12:27:50.879Z,8.97
2023-05-21T12:30:18.206Z,8.15
2023-05-21T12:32:47.011Z,9.93
2023-05-21T12:35:22.036Z,7.43
2023-05-21T12:37:51.624Z,7.45
2023-05-21T12:40:19.113Z,8.00
2023-05-21T12:42:46.429Z,7.63
2023-05-21T12:45:14.089Z,7.32
2023-05-21T12:47:41.346Z,7.50
2023-05-21T12:50:11.606Z,9.07
2023-05-21T12:52:40.390Z,7.23
2023-05-21T12:55:09.549Z,6.07
2023-05-21T12:57:38.912Z,7.55
2023-05-21T13:00:09.172Z,10.45
2023-05-21T13:02:41.825Z,8.48
2023-05-21T13:05:17.632Z,8.90
2023-05-21T13:07:47.171Z,6.65
2023-05-21T13:10:16.592Z,7.97
2023-05-21T13:12:44.798Z,7.75
2023-05-21T13:15:12.311Z,8.50
2023-05-21T13:17:39.572Z,7.93
2023-05-21T13:20:21.375Z,8.68
2023-05-21T13:22:50.662Z,6.55
2023-05-21T13:25:24.569Z,7.32
2023-05-21T13:27:52.918Z,6.10
2023-05-21T13:30:20.898Z,7.30
2023-05-21T13:32:48.222Z,7.45
2023-05-21T13:35:16.759Z,9.15
2023-05-21T13:37:45.238Z,6.78
2023-05-21T13:40:17.059Z,7.28
2023-05-21T13:42:45.726Z,7.60
2023-05-21T13:45:15.476Z,9.90
2023-05-21T13:47:44.259Z,8.63
2023-05-21T13:50:12.237Z,7.47
2023-05-21T13:52:39.358Z,9.90
2023-05-21T13:55:06.722Z,7.40
2023-05-21T13:57:33.849Z,7.57
2023-05-21T14:00:01.083Z,9.07
2023-05-21T14:02:28.388Z,7.50
2023-05-21T14:04:55.835Z,11.10
2023-05-21T14:07:22.993Z,9.57
2023-05-21T14:09:50.156Z,8.48
2023-05-21T14:12:17.404Z,10.43
2023-05-21T14:14:44.683Z,8.27
2023-05-21T14:17:11.882Z,8.52
2023-05-21T14:19:39.030Z,9.30
2023-05-21T14:22:06.158Z,9.30
2023-05-21T14:24:33.270Z,8.77
2023-05-21T14:27:00.373Z,9.45
2023-05-21T14:29:28.474Z,10.45
2023-05-21T14:31:55.609Z,11.47
2023-05-21T14:34:22.748Z,11.95
2023-05-21T14:36:49.858Z,12.30
2023-05-21T14:39:17.227Z,8.25
2023-05-21T14:41:44.441Z,12.02
2023-05-21T14:44:11.615Z,8.63
2023-05-21T14:46:39.541Z,9.85
2023-05-21T14:49:06.773Z,9.77
2023-05-21T14:51:33.878Z,8.85
2023-05-21T14:54:01.006Z,16.35
2023-05-21T14:56:28.219Z,9.87
2023-05-21T14:58:56.298Z,10.10
2023-05-21T15:01:23.588Z,9.65
2023-05-21T15:03:51.345Z,8.88
2023-05-21T15:06:18.640Z,10.32
2023-05-21T15:08:45.865Z,8.07
2023-05-21T15:11:14.420Z,8.27
2023-05-21T15:13:41.559Z,7.10
2023-05-21T15:16:08.769Z,9.95
2023-05-21T15:18:36.066Z,10.80
2023-05-21T15:21:03.236Z,8.93
2023-05-21T15:23:30.461Z,15.93
2023-05-21T15:25:57.592Z,8.57
2023-05-21T15:28:25.204Z,8.70
2023-05-21T15:30:52.462Z,9.77
2023-05-21T15:33:19.572Z,8.93
2023-05-21T15:35:46.760Z,7.38
2023-05-21T15:38:13.936Z,9.10
2023-05-21T15:40:44.300Z,8.25
2023-05-21T15:43:11.453Z,7.95
2023-05-21T15:45:39.144Z,7.97
2023-05-21T15:48:07.068Z,7.72
2023-05-21T15:50:35.734Z,7.90
2023-05-21T15:53:04.196Z,7.93
2023-05-21T15:55:34.186Z,8.35
2023-05-21T15:58:02.864Z,8.07
2023-05-21T16:00:30.199Z,9.10
2023-05-21T16:02:57.325Z,6.72
2023-05-21T16:05:24.513Z,6.80
2023-05-21T16:07:51.604Z,8.60
2023-05-21T16:10:18.804Z,7.10
2023-05-21T16:12:45.980Z,7.68
2023-05-21T16:15:13.096Z,7.72
2023-05-21T16:17:40.553Z,8.25
2023-05-21T16:20:07.912Z,9.90
2023-05-21T16:22:34.983Z,6.70
2023-05-21T16:25:02.830Z,7.93
2023-05-21T16:27:29.947Z,9.23
2023-05-21T16:29:57.242Z,6.97
2023-05-21T16:32:26.567Z,8.93
2023-05-21T16:34:53.798Z,7.63
2023-05-21T16:37:21.338Z,7.88
2023-05-21T16:39:48.450Z,7.50
2023-05-21T16:42:15.534Z,7.30
2023-05-21T16:44:42.636Z,9.90
2023-05-21T16:47:09.843Z,9.00
2023-05-21T16:49:36.961Z,10.90
2023-05-21T16:52:04.199Z,12.65
2023-05-21T16:54:31.387Z,10.68
2023-05-21T16:56:58.593Z,14.20
2023-05-21T16:59:25.710Z,11.33
2023-05-21T17:01:52.941Z,10.45
2023-05-21T17:04:20.135Z,12.93
2023-05-21T17:06:47.288Z,11.98
2023-05-21T17:09:14.864Z,12.82
2023-05-21T17:11:43.678Z,11.13
2023-05-21T17:14:13.476Z,10.13
2023-05-21T17:16:44.954Z,10.45
2023-05-21T17:19:12.123Z,9.60
2023-05-21T17:21:39.387Z,12.52
2023-05-21T17:24:06.748Z,10.10
2023-05-21T17:26:33.881Z,10.88
2023-05-21T17:29:01.296Z,10.40
2023-05-21T17:31:30.756Z,10.57
2023-05-21T17:33:58.119Z,9.55
2023-05-21T17:36:25.309Z,9.10
2023-05-21T17:38:52.494Z,10.30
2023-05-21T17:41:21.926Z,10.70
2023-05-21T17:43:49.060Z,10.48
2023-05-21T17:46:18.364Z,9.38
2023-05-21T17:48:45.648Z,11.77
2023-05-21T17:51:12.927Z,8.93
2023-05-21T17:53:40.852Z,10.15
2023-05-21T17:56:08.234Z,11.80
2023-05-21T17:58:35.421Z,11.23
2023-05-21T18:01:02.811Z,10.90
2023-05-21T18:03:30.310Z,9.25
2023-05-21T18:05:57.518Z,9.20
2023-05-21T18:08:26.749Z,9.15
2023-05-21T18:10:54.115Z,9.48
2023-05-21T18:13:21.576Z,9.57
2023-05-21T18:15:48.882Z,9.38
2023-05-21T18:18:21.492Z,11.13
2023-05-21T18:20:49.711Z,8.43
2023-05-21T18:23:17.769Z,9.32
2023-05-21T18:25:44.941Z,9.80
2023-05-21T18:28:12.070Z,9.10
2023-05-21T18:30:39.383Z,9.80
2023-05-21T18:33:08.824Z,9.68
2023-05-21T18:35:35.990Z,8.20
2023-05-21T18:38:04.392Z,9.83
2023-05-21T18:40:33.184Z,9.10
2023-05-21T18:43:00.736Z,9.50
2023-05-21T18:45:27.994Z,9.98
2023-05-21T18:47:55.718Z,8.98
2023-05-21T18:50:23.062Z,8.87
2023-05-21T18:52:53.819Z,12.95
2023-05-21T18:55:21.777Z,14.23
2023-05-21T18:57:49.058Z,8.45
2023-05-21T19:00:16.866Z,8.48
2023-05-21T19:02:44.358Z,10.97
2023-05-21T19:05:11.618Z,7.57
2023-05-21T19:07:38.748Z,10.10
2023-05-21T19:10:06.377Z,8.15
2023-05-21T19:12:35.961Z,10.35
2023-05-21T19:15:06.074Z,8.90
2023-05-21T19:17:35.033Z,9.65
2023-05-21T19:20:04.973Z,8.35
2023-05-21T19:22:32.249Z,10.30
2023-05-21T19:25:00.577Z,10.30
2023-05-21T19:27:29.293Z,9.57
2023-05-21T19:29:56.570Z,8.65
2023-05-21T19:32:24.004Z,9.23
2023-05-21T19:34:52.147Z,9.18
2023-05-21T19:37:19.269Z,8.57
2023-05-21T19:39:49.941Z,8.97
2023-05-21T19:42:18.751Z,8.30
2023-05-21T19:44:46.237Z,13.10
2023-05-21T19:47:13.596Z,10.45
2023-05-21T19:49:40.679Z,8.57
2023-05-21T19:52:07.842Z,12.53
2023-05-21T19:54:34.945Z,10.90
2023-05-21T19:57:02.139Z,11.68
2023-05-21T19:59:29.244Z,9.80
2023-05-21T20:01:56.327Z,11.90
2023-05-21T20:04:23.453Z,9.07
2023-05-21T20:06:51.463Z,9.20
2023-05-21T20:09:18.536Z,9.23
2023-05-21T20:11:45.704Z,8.73
2023-05-21T20:14:13.425Z,8.23
2023-05-21T20:16:42.197Z,9.83
2023-05-21T20:19:10.595Z,9.55
2023-05-21T20:21:37.868Z,11.38
2023-05-21T20:24:05.715Z,9.75
2023-05-21T20:26:34.931Z,8.52
2023-05-21T20:29:02.144Z,9.40
2023-05-21T20:31:29.410Z,10.77
2023-05-21T20:33:56.584Z,10.27
2023-05-21T20:36:23.877Z,11.90
2023-05-21T20:38:51.102Z,10.45
2023-05-21T20:41:18.200Z,11.63
2023-05-21T20:43:45.906Z,11.68
2023-05-21T20:46:13.506Z,11.10
2023-05-21T20:48:41.750Z,9.38
2023-05-21T20:51:09.091Z,10.98
2023-05-21T20:53:36.900Z,11.13
2023-05-21T20:56:07.960Z,13.50
2023-05-21T20:58:35.228Z,10.45
2023-05-21T21:01:02.325Z,11.82
2023-05-21T21:03:30.412Z,9.93
2023-05-21T21:05:59.634Z,11.27
2023-05-21T21:08:27.675Z,10.23
2023-05-21T21:10:54.869Z,9.85
2023-05-21T21:13:22.286Z,7.80
2023-05-21T21:15:50.048Z,9.30
2023-05-21T21:18:17.528Z,8.70
2023-05-21T21:20:49.430Z,10.05
2023-05-21T21:23:16.592Z,8.30
2023-05-21T21:25:44.386Z,8.82
2023-05-21T21:28:11.984Z,8.43
2023-05-21T21:30:40.865Z,8.90
2023-05-21T21:33:08.547Z,8.73
2023-05-21T21:35:35.983Z,8.02
2023-05-21T21:38:04.860Z,8.50
2023-05-21T21:40:32.107Z,7.93
2023-05-21T21:42:59.237Z,9.23
2023-05-21T21:45:26.510Z,11.40
2023-05-21T21:47:53.720Z,9.68
2023-05-21T21:50:20.913Z,10.38
2023-05-21T21:52:48.828Z,12.63
2023-05-21T21:55:16.057Z,10.40
2023-05-21T21:57:43.170Z,9.65
2023-05-21T22:00:17.263Z,9.13
2023-05-21T22:02:46.497Z,7.90
2023-05-21T22:05:16.926Z,10.38
2023-05-21T22:07:47.228Z,11.03
2023-05-21T22:10:16.101Z,9.27
2023-05-21T22:12:43.945Z,7.78
2023-05-21T22:15:17.928Z,10.40
2023-05-21T22:17:45.317Z,10.10
2023-05-21T22:20:12.720Z,9.53
2023-05-21T22:22:39.817Z,8.77
2023-05-21T22:25:07.119Z,9.90
2023-05-21T22:27:34.252Z,9.52
2023-05-21T22:30:01.362Z,9.55
2023-05-21T22:32:28.476Z,9.03
2023-05-21T22:34:55.642Z,10.05
2023-05-21T22:37:23.699Z,8.73
2023-05-21T22:39:50.841Z,9.70
2023-05-21T22:42:18.408Z,7.75
2023-05-21T22:44:45.537Z,10.20
2023-05-21T22:47:13.925Z,9.95
2023-05-21T22:49:41.070Z,10.05
2023-05-21T22:52:09.452Z,12.15
2023-05-21T22:54:36.694Z,10.73
2023-05-21T22:57:04.055Z,11.23
2023-05-21T22:59:33.987Z,10.55
2023-05-21T23:02:01.210Z,12.05
2023-05-21T23:04:42.741Z,10.73
2023-05-21T23:07:11.652Z,11.02
2023-05-21T23:09:38.808Z,9.93
2023-05-21T23:12:06.466Z,9.88
2023-05-21T23:14:33.758Z,14.73
2023-05-21T23:17:02.279Z,11.32
2023-05-21T23:19:29.818Z,13.02
2023-05-21T23:21:57.192Z,13.87
2023-05-21T23:24:24.298Z,12.15
2023-05-21T23:26:52.379Z,11.15
2023-05-21T23:29:19.493Z,9.98
2023-05-21T23:31:46.897Z,10.80
2023-05-21T23:34:14.201Z,13.17
2023-05-21T23:36:41.315Z,11.75
2023-05-21T23:39:09.227Z,10.45
2023-05-21T23:41:36.425Z,11.23
2023-05-21T23:44:03.640Z,12.35
2023-05-21T23:46:30.896Z,11.67
2023-05-21T23:48:57.975Z,12.95
2023-05-21T23:51:25.264Z,10.38
2023-05-21T23:53:52.406Z,12.05
2023-05-21T23:56:19.545Z,9.25
2023-05-21T23:58:46.627Z,10.73
